sensor_id;sensor_type;location;lat;lon;timestamp;temperature;humidity
6556;DHT22;3311;48.32423000;14.29074500;2023-06-19T00:00:54;22.20;56.00
6556;DHT22;3311;48.32423000;14.29074500;2023-06-19T00:03:21;22.30;55.80
6556;DHT22;3311;48.32423000;14.29074500;2023-06-19T00:05:50;22.30;55.80
6556;DHT22;3311;48.32423000;14.29074500;2023-06-19T00:08:17;22.10;55.50
6556;DHT22;3311;48.32423000;14.29074500;2023-06-19T00:10:45;22.00;55.60
6556;DHT22;3311;48.32423000;14.29074500;2023-06-19T00:13:12;22.10;56.20
6556;DHT22;3311;48.32423000;14.29074500;2023-06-19T00:15:40;22.20;56.20
6556;DHT22;3311;48.32423000;14.29074500;2023-06-19T00:18:08;22.30;56.00
6556;DHT22;3311;48.32423000;14.29074500;2023-06-19T00:20:36;22.30;56.00
6556;DHT22;3311;48.32423000;14.29074500;2023-06-19T00:23:06;22.30;56.30
6556;DHT22;3311;48.32423000;14.29074500;2023-06-19T00:25:37;22.30;55.80
6556;DHT22;3311;48.32423000;14.29074500;2023-06-19T00:28:04;22.30;55.80
6556;DHT22;3311;48.32423000;14.29074500;2023-06-19T00:30:39;22.30;55.80
6556;DHT22;3311;48.32423000;14.29074500;2023-06-19T00:33:07;22.20;56.00
6556;DHT22;3311;48.32423000;14.29074500;2023-06-19T00:35:35;22.20;56.00
6556;DHT22;3311;48.32423000;14.29074500;2023-06-19T00:38:05;22.10;56.20
6556;DHT22;3311;48.32423000;14.29074500;2023-06-19T00:40:34;22.20;56.00
6556;DHT22;3311;48.32423000;14.29074500;2023-06-19T00:43:02;22.10;56.20
6556;DHT22;3311;48.32423000;14.29074500;2023-06-19T00:45:30;22.00;56.30
6556;DHT22;3311;48.32423000;14.29074500;2023-06-19T00:47:58;21.80;56.50
6556;DHT22;3311;48.32423000;14.29074500;2023-06-19T00:50:28;21.70;56.80
6556;DHT22;3311;48.32423000;14.29074500;2023-06-19T00:52:57;22.10;57.40
6556;DHT22;3311;48.32423000;14.29074500;2023-06-19T00:55:27;21.70;57.10
6556;DHT22;3311;48.32423000;14.29074500;2023-06-19T00:57:57;21.70;57.20
6556;DHT22;3311;48.32423000;14.29074500;2023-06-19T01:00:25;21.70;57.20
6556;DHT22;3311;48.32423000;14.29074500;2023-06-19T01:02:52;21.80;57.10
6556;DHT22;3311;48.32423000;14.29074500;2023-06-19T01:05:19;21.90;56.90
6556;DHT22;3311;48.32423000;14.29074500;2023-06-19T01:07:52;22.00;56.90
6556;DHT22;3311;48.32423000;14.29074500;2023-06-19T01:10:26;22.00;56.80
6556;DHT22;3311;48.32423000;14.29074500;2023-06-19T01:12:58;22.00;56.80
6556;DHT22;3311;48.32423000;14.29074500;2023-06-19T01:15:27;21.90;56.90
6556;DHT22;3311;48.32423000;14.29074500;2023-06-19T01:17:56;21.80;57.20
6556;DHT22;3311;48.32423000;14.29074500;2023-06-19T01:20:25;21.70;57.40
6556;DHT22;3311;48.32423000;14.29074500;2023-06-19T01:22:54;21.80;57.50
6556;DHT22;3311;48.32423000;14.29074500;2023-06-19T01:25:23;21.80;57.40
6556;DHT22;3311;48.32423000;14.29074500;2023-06-19T01:27:51;21.70;57.40
6556;DHT22;3311;48.32423000;14.29074500;2023-06-19T01:30:19;21.70;57.50
6556;DHT22;3311;48.32423000;14.29074500;2023-06-19T01:32:53;21.80;57.10
6556;DHT22;3311;48.32423000;14.29074500;2023-06-19T01:35:25;21.80;57.10
6556;DHT22;3311;48.32423000;14.29074500;2023-06-19T01:37:56;21.90;57.20
6556;DHT22;3311;48.32423000;14.29074500;2023-06-19T01:40:25;22.00;57.20
6556;DHT22;3311;48.32423000;14.29074500;2023-06-19T01:42:58;22.20;57.00
6556;DHT22;3311;48.32423000;14.29074500;2023-06-19T01:45:28;22.00;56.70
6556;DHT22;3311;48.32423000;14.29074500;2023-06-19T01:47:55;21.80;56.80
6556;DHT22;3311;48.32423000;14.29074500;2023-06-19T01:50:24;21.80;57.20
6556;DHT22;3311;48.32423000;14.29074500;2023-06-19T01:52:52;21.70;57.50
6556;DHT22;3311;48.32423000;14.29074500;2023-06-19T01:55:21;21.50;57.50
6556;DHT22;3311;48.32423000;14.29074500;2023-06-19T01:57:48;21.70;57.20
6556;DHT22;3311;48.32423000;14.29074500;2023-06-19T02:00:16;21.70;57.10
6556;DHT22;3311;48.32423000;14.29074500;2023-06-19T02:02:44;21.90;57.20
6556;DHT22;3311;48.32423000;14.29074500;2023-06-19T02:05:11;21.90;57.20
6556;DHT22;3311;48.32423000;14.29074500;2023-06-19T02:07:39;21.90;57.20
6556;DHT22;3311;48.32423000;14.29074500;2023-06-19T02:10:07;21.70;57.50
6556;DHT22;3311;48.32423000;14.29074500;2023-06-19T02:12:36;21.60;58.00
6556;DHT22;3311;48.32423000;14.29074500;2023-06-19T02:15:05;21.70;57.80
6556;DHT22;3311;48.32423000;14.29074500;2023-06-19T02:17:33;21.70;57.80
6556;DHT22;3311;48.32423000;14.29074500;2023-06-19T02:20:00;21.60;58.30
6556;DHT22;3311;48.32423000;14.29074500;2023-06-19T02:22:27;21.70;57.70
6556;DHT22;3311;48.32423000;14.29074500;2023-06-19T02:24:55;21.60;57.80
6556;DHT22;3311;48.32423000;14.29074500;2023-06-19T02:27:22;21.50;58.20
6556;DHT22;3311;48.32423000;14.29074500;2023-06-19T02:29:51;21.50;58.30
6556;DHT22;3311;48.32423000;14.29074500;2023-06-19T02:32:18;21.80;58.10
6556;DHT22;3311;48.32423000;14.29074500;2023-06-19T02:34:45;21.90;57.60
6556;DHT22;3311;48.32423000;14.29074500;2023-06-19T02:37:13;21.90;57.60
6556;DHT22;3311;48.32423000;14.29074500;2023-06-19T02:39:40;21.80;57.60
6556;DHT22;3311;48.32423000;14.29074500;2023-06-19T02:42:08;21.70;57.90
6556;DHT22;3311;48.32423000;14.29074500;2023-06-19T02:44:35;21.60;58.30
6556;DHT22;3311;48.32423000;14.29074500;2023-06-19T02:47:05;21.60;58.30
6556;DHT22;3311;48.32423000;14.29074500;2023-06-19T02:49:32;21.70;58.20
6556;DHT22;3311;48.32423000;14.29074500;2023-06-19T02:52:00;21.90;58.00
6556;DHT22;3311;48.32423000;14.29074500;2023-06-19T02:54:27;22.00;57.50
6556;DHT22;3311;48.32423000;14.29074500;2023-06-19T02:56:54;21.90;57.50
6556;DHT22;3311;48.32423000;14.29074500;2023-06-19T02:59:21;21.50;58.00
6556;DHT22;3311;48.32423000;14.29074500;2023-06-19T03:01:49;21.30;58.50
6556;DHT22;3311;48.32423000;14.29074500;2023-06-19T03:04:19;21.30;58.80
6556;DHT22;3311;48.32423000;14.29074500;2023-06-19T03:06:46;21.20;58.80
6556;DHT22;3311;48.32423000;14.29074500;2023-06-19T03:09:14;21.30;58.90
6556;DHT22;3311;48.32423000;14.29074500;2023-06-19T03:11:41;21.40;58.80
6556;DHT22;3311;48.32423000;14.29074500;2023-06-19T03:14:09;21.60;58.50
6556;DHT22;3311;48.32423000;14.29074500;2023-06-19T03:16:36;21.80;58.20
6556;DHT22;3311;48.32423000;14.29074500;2023-06-19T03:19:04;21.80;57.90
6556;DHT22;3311;48.32423000;14.29074500;2023-06-19T03:21:33;21.90;57.90
6556;DHT22;3311;48.32423000;14.29074500;2023-06-19T03:24:01;21.90;57.90
6556;DHT22;3311;48.32423000;14.29074500;2023-06-19T03:26:28;21.60;58.30
6556;DHT22;3311;48.32423000;14.29074500;2023-06-19T03:28:56;21.30;58.90
6556;DHT22;3311;48.32423000;14.29074500;2023-06-19T03:31:23;21.20;59.10
6556;DHT22;3311;48.32423000;14.29074500;2023-06-19T03:33:51;21.30;59.00
6556;DHT22;3311;48.32423000;14.29074500;2023-06-19T03:36:18;21.20;59.10
6556;DHT22;3311;48.32423000;14.29074500;2023-06-19T03:38:48;21.40;58.80
6556;DHT22;3311;48.32423000;14.29074500;2023-06-19T03:41:15;21.50;58.50
6556;DHT22;3311;48.32423000;14.29074500;2023-06-19T03:43:42;21.50;58.20
6556;DHT22;3311;48.32423000;14.29074500;2023-06-19T03:46:10;21.40;58.50
6556;DHT22;3311;48.32423000;14.29074500;2023-06-19T03:48:37;21.20;59.00
6556;DHT22;3311;48.32423000;14.29074500;2023-06-19T03:51:04;21.20;59.00
6556;DHT22;3311;48.32423000;14.29074500;2023-06-19T03:53:32;21.40;58.90
6556;DHT22;3311;48.32423000;14.29074500;2023-06-19T03:56:00;21.60;58.60
6556;DHT22;3311;48.32423000;14.29074500;2023-06-19T03:58:28;21.60;58.30
6556;DHT22;3311;48.32423000;14.29074500;2023-06-19T04:00:55;21.50;58.80
6556;DHT22;3311;48.32423000;14.29074500;2023-06-19T04:03:22;21.50;59.00
6556;DHT22;3311;48.32423000;14.29074500;2023-06-19T04:05:50;21.40;59.30
6556;DHT22;3311;48.32423000;14.29074500;2023-06-19T04:08:17;21.60;59.30
6556;DHT22;3311;48.32423000;14.29074500;2023-06-19T04:10:44;21.70;59.10
6556;DHT22;3311;48.32423000;14.29074500;2023-06-19T04:13:13;21.60;59.40
6556;DHT22;3311;48.32423000;14.29074500;2023-06-19T04:15:42;21.80;59.20
6556;DHT22;3311;48.32423000;14.29074500;2023-06-19T04:18:10;21.80;59.20
6556;DHT22;3311;48.32423000;14.29074500;2023-06-19T04:20:37;21.80;59.50
6556;DHT22;3311;48.32423000;14.29074500;2023-06-19T04:23:06;21.80;59.40
6556;DHT22;3311;48.32423000;14.29074500;2023-06-19T04:25:34;21.90;59.20
6556;DHT22;3311;48.32423000;14.29074500;2023-06-19T04:28:02;22.00;59.40
6556;DHT22;3311;48.32423000;14.29074500;2023-06-19T04:30:32;22.20;59.10
6556;DHT22;3311;48.32423000;14.29074500;2023-06-19T04:32:59;22.20;59.00
6556;DHT22;3311;48.32423000;14.29074500;2023-06-19T04:35:27;22.30;59.00
6556;DHT22;3311;48.32423000;14.29074500;2023-06-19T04:37:54;22.30;59.10
6556;DHT22;3311;48.32423000;14.29074500;2023-06-19T04:40:21;22.40;59.10
6556;DHT22;3311;48.32423000;14.29074500;2023-06-19T04:42:49;22.50;59.20
6556;DHT22;3311;48.32423000;14.29074500;2023-06-19T04:45:19;22.40;58.60
6556;DHT22;3311;48.32423000;14.29074500;2023-06-19T04:47:48;22.30;59.20
6556;DHT22;3311;48.32423000;14.29074500;2023-06-19T04:50:15;22.30;60.00
6556;DHT22;3311;48.32423000;14.29074500;2023-06-19T04:52:43;22.30;59.90
6556;DHT22;3311;48.32423000;14.29074500;2023-06-19T04:55:10;22.40;60.00
6556;DHT22;3311;48.32423000;14.29074500;2023-06-19T04:57:38;22.50;59.50
6556;DHT22;3311;48.32423000;14.29074500;2023-06-19T05:00:06;22.60;59.40
6556;DHT22;3311;48.32423000;14.29074500;2023-06-19T05:02:36;22.50;59.50
6556;DHT22;3311;48.32423000;14.29074500;2023-06-19T05:05:06;22.50;60.40
6556;DHT22;3311;48.32423000;14.29074500;2023-06-19T05:07:33;22.30;61.40
6556;DHT22;3311;48.32423000;14.29074500;2023-06-19T05:10:00;22.20;61.70
6556;DHT22;3311;48.32423000;14.29074500;2023-06-19T05:12:28;22.20;61.60
6556;DHT22;3311;48.32423000;14.29074500;2023-06-19T05:14:55;22.30;61.20
6556;DHT22;3311;48.32423000;14.29074500;2023-06-19T05:17:22;22.50;60.50
6556;DHT22;3311;48.32423000;14.29074500;2023-06-19T05:19:49;22.70;59.70
6556;DHT22;3311;48.32423000;14.29074500;2023-06-19T05:22:18;22.80;59.40
6556;DHT22;3311;48.32423000;14.29074500;2023-06-19T05:24:47;23.00;59.00
6556;DHT22;3311;48.32423000;14.29074500;2023-06-19T05:27:14;23.00;58.50
6556;DHT22;3311;48.32423000;14.29074500;2023-06-19T05:29:41;23.00;58.30
6556;DHT22;3311;48.32423000;14.29074500;2023-06-19T05:32:09;23.00;58.30
6556;DHT22;3311;48.32423000;14.29074500;2023-06-19T05:34:36;23.10;58.50
6556;DHT22;3311;48.32423000;14.29074500;2023-06-19T05:37:04;23.20;58.30
6556;DHT22;3311;48.32423000;14.29074500;2023-06-19T05:39:32;23.30;57.80
6556;DHT22;3311;48.32423000;14.29074500;2023-06-19T05:42:00;23.30;57.70
6556;DHT22;3311;48.32423000;14.29074500;2023-06-19T05:44:28;23.20;57.70
6556;DHT22;3311;48.32423000;14.29074500;2023-06-19T05:46:55;23.10;58.30
6556;DHT22;3311;48.32423000;14.29074500;2023-06-19T05:49:22;23.00;58.60
6556;DHT22;3311;48.32423000;14.29074500;2023-06-19T05:51:49;22.90;60.10
6556;DHT22;3311;48.32423000;14.29074500;2023-06-19T05:54:17;22.80;61.00
6556;DHT22;3311;48.32423000;14.29074500;2023-06-19T05:56:45;22.80;61.80
6556;DHT22;3311;48.32423000;14.29074500;2023-06-19T05:59:16;22.90;62.40
6556;DHT22;3311;48.32423000;14.29074500;2023-06-19T06:01:43;23.10;61.30
6556;DHT22;3311;48.32423000;14.29074500;2023-06-19T06:04:10;23.20;60.70
6556;DHT22;3311;48.32423000;14.29074500;2023-06-19T06:06:38;23.30;60.20
6556;DHT22;3311;48.32423000;14.29074500;2023-06-19T06:09:05;23.40;59.90
6556;DHT22;3311;48.32423000;14.29074500;2023-06-19T06:11:36;23.60;59.50
6556;DHT22;3311;48.32423000;14.29074500;2023-06-19T06:14:05;23.70;59.10
6556;DHT22;3311;48.32423000;14.29074500;2023-06-19T06:16:32;23.70;59.00
6556;DHT22;3311;48.32423000;14.29074500;2023-06-19T06:18:59;23.60;58.90
6556;DHT22;3311;48.32423000;14.29074500;2023-06-19T06:21:26;23.70;58.80
6556;DHT22;3311;48.32423000;14.29074500;2023-06-19T06:23:53;23.60;58.80
6556;DHT22;3311;48.32423000;14.29074500;2023-06-19T06:26:21;23.50;58.60
6556;DHT22;3311;48.32423000;14.29074500;2023-06-19T06:28:48;23.60;58.30
6556;DHT22;3311;48.32423000;14.29074500;2023-06-19T06:31:17;23.70;58.10
6556;DHT22;3311;48.32423000;14.29074500;2023-06-19T06:33:44;23.90;57.90
6556;DHT22;3311;48.32423000;14.29074500;2023-06-19T06:36:14;24.00;57.50
6556;DHT22;3311;48.32423000;14.29074500;2023-06-19T06:38:41;24.10;57.70
6556;DHT22;3311;48.32423000;14.29074500;2023-06-19T06:41:08;24.20;57.50
6556;DHT22;3311;48.32423000;14.29074500;2023-06-19T06:43:35;24.10;57.30
6556;DHT22;3311;48.32423000;14.29074500;2023-06-19T06:46:04;24.00;57.50
6556;DHT22;3311;48.32423000;14.29074500;2023-06-19T06:48:33;24.00;57.70
6556;DHT22;3311;48.32423000;14.29074500;2023-06-19T06:51:00;23.90;57.70
6556;DHT22;3311;48.32423000;14.29074500;2023-06-19T06:53:27;23.90;57.70
6556;DHT22;3311;48.32423000;14.29074500;2023-06-19T06:55:55;23.80;57.70
6556;DHT22;3311;48.32423000;14.29074500;2023-06-19T06:58:22;23.80;57.90
6556;DHT22;3311;48.32423000;14.29074500;2023-06-19T07:00:49;23.70;57.90
6556;DHT22;3311;48.32423000;14.29074500;2023-06-19T07:03:17;23.70;58.10
6556;DHT22;3311;48.32423000;14.29074500;2023-06-19T07:05:47;23.60;58.10
6556;DHT22;3311;48.32423000;14.29074500;2023-06-19T07:08:14;23.60;58.20
6556;DHT22;3311;48.32423000;14.29074500;2023-06-19T07:10:42;23.50;58.10
6556;DHT22;3311;48.32423000;14.29074500;2023-06-19T07:13:09;23.50;58.20
6556;DHT22;3311;48.32423000;14.29074500;2023-06-19T07:15:36;23.50;58.30
6556;DHT22;3311;48.32423000;14.29074500;2023-06-19T07:18:03;23.40;58.30
6556;DHT22;3311;48.32423000;14.29074500;2023-06-19T07:20:31;23.40;58.40
6556;DHT22;3311;48.32423000;14.29074500;2023-06-19T07:22:59;23.40;58.70
6556;DHT22;3311;48.32423000;14.29074500;2023-06-19T07:25:27;23.30;58.70
6556;DHT22;3311;48.32423000;14.29074500;2023-06-19T07:27:54;23.30;58.90
6556;DHT22;3311;48.32423000;14.29074500;2023-06-19T07:30:21;23.30;58.90
6556;DHT22;3311;48.32423000;14.29074500;2023-06-19T07:32:48;23.20;59.00
6556;DHT22;3311;48.32423000;14.29074500;2023-06-19T07:35:16;23.20;59.30
6556;DHT22;3311;48.32423000;14.29074500;2023-06-19T07:37:44;23.20;59.40
6556;DHT22;3311;48.32423000;14.29074500;2023-06-19T07:40:13;23.10;59.40
6556;DHT22;3311;48.32423000;14.29074500;2023-06-19T07:42:41;23.10;59.50
6556;DHT22;3311;48.32423000;14.29074500;2023-06-19T07:45:10;23.10;59.60
6556;DHT22;3311;48.32423000;14.29074500;2023-06-19T07:47:37;23.20;59.70
6556;DHT22;3311;48.32423000;14.29074500;2023-06-19T07:50:06;23.20;59.80
6556;DHT22;3311;48.32423000;14.29074500;2023-06-19T07:52:34;23.20;60.00
6556;DHT22;3311;48.32423000;14.29074500;2023-06-19T07:55:02;23.20;60.20
6556;DHT22;3311;48.32423000;14.29074500;2023-06-19T07:57:31;23.20;60.90
6556;DHT22;3311;48.32423000;14.29074500;2023-06-19T07:59:59;23.10;61.10
6556;DHT22;3311;48.32423000;14.29074500;2023-06-19T08:02:26;23.10;61.50
6556;DHT22;3311;48.32423000;14.29074500;2023-06-19T08:04:54;23.10;61.70
6556;DHT22;3311;48.32423000;14.29074500;2023-06-19T08:07:21;23.10;62.10
6556;DHT22;3311;48.32423000;14.29074500;2023-06-19T08:09:48;23.10;62.10
6556;DHT22;3311;48.32423000;14.29074500;2023-06-19T08:12:15;23.10;62.00
6556;DHT22;3311;48.32423000;14.29074500;2023-06-19T08:14:44;23.20;62.00
6556;DHT22;3311;48.32423000;14.29074500;2023-06-19T08:17:11;23.20;61.80
6556;DHT22;3311;48.32423000;14.29074500;2023-06-19T08:19:38;23.20;61.70
6556;DHT22;3311;48.32423000;14.29074500;2023-06-19T08:22:08;23.20;61.60
6556;DHT22;3311;48.32423000;14.29074500;2023-06-19T08:24:36;23.20;61.70
6556;DHT22;3311;48.32423000;14.29074500;2023-06-19T08:27:05;23.20;61.60
6556;DHT22;3311;48.32423000;14.29074500;2023-06-19T08:29:32;23.30;61.50
6556;DHT22;3311;48.32423000;14.29074500;2023-06-19T08:32:01;23.30;61.30
6556;DHT22;3311;48.32423000;14.29074500;2023-06-19T08:34:29;23.40;61.20
6556;DHT22;3311;48.32423000;14.29074500;2023-06-19T08:36:57;23.60;60.70
6556;DHT22;3311;48.32423000;14.29074500;2023-06-19T08:39:24;23.70;60.40
6556;DHT22;3311;48.32423000;14.29074500;2023-06-19T08:41:51;23.60;60.30
6556;DHT22;3311;48.32423000;14.29074500;2023-06-19T08:44:19;23.60;60.40
6556;DHT22;3311;48.32423000;14.29074500;2023-06-19T08:46:47;23.50;60.30
6556;DHT22;3311;48.32423000;14.29074500;2023-06-19T08:49:15;23.50;60.30
6556;DHT22;3311;48.32423000;14.29074500;2023-06-19T08:51:43;23.50;60.40
6556;DHT22;3311;48.32423000;14.29074500;2023-06-19T08:54:10;23.60;60.30
6556;DHT22;3311;48.32423000;14.29074500;2023-06-19T08:56:39;23.60;60.20
6556;DHT22;3311;48.32423000;14.29074500;2023-06-19T08:59:10;23.60;62.00
6556;DHT22;3311;48.32423000;14.29074500;2023-06-19T09:01:38;23.70;61.20
6556;DHT22;3311;48.32423000;14.29074500;2023-06-19T09:04:10;23.80;60.60
6556;DHT22;3311;48.32423000;14.29074500;2023-06-19T09:06:49;23.80;60.30
6556;DHT22;3311;48.32423000;14.29074500;2023-06-19T09:09:17;23.80;60.40
6556;DHT22;3311;48.32423000;14.29074500;2023-06-19T09:11:58;23.80;60.30
6556;DHT22;3311;48.32423000;14.29074500;2023-06-19T09:14:36;23.80;60.20
6556;DHT22;3311;48.32423000;14.29074500;2023-06-19T09:17:05;23.80;60.00
6556;DHT22;3311;48.32423000;14.29074500;2023-06-19T09:19:34;23.90;60.70
6556;DHT22;3311;48.32423000;14.29074500;2023-06-19T09:22:04;24.00;61.20
6556;DHT22;3311;48.32423000;14.29074500;2023-06-19T09:24:36;24.00;61.20
6556;DHT22;3311;48.32423000;14.29074500;2023-06-19T09:27:07;24.10;61.00
6556;DHT22;3311;48.32423000;14.29074500;2023-06-19T09:29:39;24.00;61.00
6556;DHT22;3311;48.32423000;14.29074500;2023-06-19T09:32:16;24.00;60.90
6556;DHT22;3311;48.32423000;14.29074500;2023-06-19T09:34:44;24.00;61.30
6556;DHT22;3311;48.32423000;14.29074500;2023-06-19T09:37:13;24.10;61.10
6556;DHT22;3311;48.32423000;14.29074500;2023-06-19T09:39:41;24.10;61.30
6556;DHT22;3311;48.32423000;14.29074500;2023-06-19T09:42:09;24.20;61.20
6556;DHT22;3311;48.32423000;14.29074500;2023-06-19T09:44:40;24.20;60.90
6556;DHT22;3311;48.32423000;14.29074500;2023-06-19T09:47:16;24.20;60.90
6556;DHT22;3311;48.32423000;14.29074500;2023-06-19T09:49:49;24.20;60.80
6556;DHT22;3311;48.32423000;14.29074500;2023-06-19T09:52:22;24.30;60.60
6556;DHT22;3311;48.32423000;14.29074500;2023-06-19T09:54:51;24.30;60.30
6556;DHT22;3311;48.32423000;14.29074500;2023-06-19T09:57:18;24.30;60.10
6556;DHT22;3311;48.32423000;14.29074500;2023-06-19T09:59:47;24.30;59.90
6556;DHT22;3311;48.32423000;14.29074500;2023-06-19T10:02:17;24.30;59.90
6556;DHT22;3311;48.32423000;14.29074500;2023-06-19T10:04:48;24.30;60.60
6556;DHT22;3311;48.32423000;14.29074500;2023-06-19T10:07:18;24.30;61.20
6556;DHT22;3311;48.32423000;14.29074500;2023-06-19T10:09:58;24.30;61.10
6556;DHT22;3311;48.32423000;14.29074500;2023-06-19T10:12:36;24.30;61.00
6556;DHT22;3311;48.32423000;14.29074500;2023-06-19T10:15:16;24.30;60.60
6556;DHT22;3311;48.32423000;14.29074500;2023-06-19T10:17:46;24.30;60.60
6556;DHT22;3311;48.32423000;14.29074500;2023-06-19T10:20:23;24.30;60.90
6556;DHT22;3311;48.32423000;14.29074500;2023-06-19T10:22:52;24.40;60.70
6556;DHT22;3311;48.32423000;14.29074500;2023-06-19T10:25:26;24.40;60.50
6556;DHT22;3311;48.32423000;14.29074500;2023-06-19T10:27:54;24.40;60.30
6556;DHT22;3311;48.32423000;14.29074500;2023-06-19T10:30:21;24.30;60.30
6556;DHT22;3311;48.32423000;14.29074500;2023-06-19T10:32:49;24.30;60.50
6556;DHT22;3311;48.32423000;14.29074500;2023-06-19T10:35:17;24.20;60.40
6556;DHT22;3311;48.32423000;14.29074500;2023-06-19T10:37:47;24.20;60.50
6556;DHT22;3311;48.32423000;14.29074500;2023-06-19T10:40:14;24.10;60.40
6556;DHT22;3311;48.32423000;14.29074500;2023-06-19T10:42:43;24.10;60.40
6556;DHT22;3311;48.32423000;14.29074500;2023-06-19T10:45:12;24.10;60.50
6556;DHT22;3311;48.32423000;14.29074500;2023-06-19T10:47:42;24.00;60.40
6556;DHT22;3311;48.32423000;14.29074500;2023-06-19T10:50:11;24.00;60.40
6556;DHT22;3311;48.32423000;14.29074500;2023-06-19T10:52:43;24.00;60.50
6556;DHT22;3311;48.32423000;14.29074500;2023-06-19T10:55:12;24.00;60.50
6556;DHT22;3311;48.32423000;14.29074500;2023-06-19T10:57:43;24.00;60.60
6556;DHT22;3311;48.32423000;14.29074500;2023-06-19T11:00:23;24.00;60.60
6556;DHT22;3311;48.32423000;14.29074500;2023-06-19T11:02:50;24.00;60.60
6556;DHT22;3311;48.32423000;14.29074500;2023-06-19T11:05:20;24.00;60.70
6556;DHT22;3311;48.32423000;14.29074500;2023-06-19T11:07:53;24.00;60.70
6556;DHT22;3311;48.32423000;14.29074500;2023-06-19T11:10:21;24.00;60.80
6556;DHT22;3311;48.32423000;14.29074500;2023-06-19T11:12:49;24.00;61.00
6556;DHT22;3311;48.32423000;14.29074500;2023-06-19T11:15:18;24.00;60.90
6556;DHT22;3311;48.32423000;14.29074500;2023-06-19T11:17:45;23.90;60.90
6556;DHT22;3311;48.32423000;14.29074500;2023-06-19T11:20:13;24.00;61.00
6556;DHT22;3311;48.32423000;14.29074500;2023-06-19T11:22:41;24.00;61.10
6556;DHT22;3311;48.32423000;14.29074500;2023-06-19T11:25:10;24.00;61.10
6556;DHT22;3311;48.32423000;14.29074500;2023-06-19T11:27:38;24.00;61.10
6556;DHT22;3311;48.32423000;14.29074500;2023-06-19T11:30:07;23.90;61.10
6556;DHT22;3311;48.32423000;14.29074500;2023-06-19T11:32:37;23.90;61.10
6556;DHT22;3311;48.32423000;14.29074500;2023-06-19T11:35:11;23.90;61.10
6556;DHT22;3311;48.32423000;14.29074500;2023-06-19T11:37:42;23.90;61.10
6556;DHT22;3311;48.32423000;14.29074500;2023-06-19T11:40:10;23.90;61.10
6556;DHT22;3311;48.32423000;14.29074500;2023-06-19T11:42:45;23.90;61.10
6556;DHT22;3311;48.32423000;14.29074500;2023-06-19T11:45:14;23.90;61.00
6556;DHT22;3311;48.32423000;14.29074500;2023-06-19T11:47:44;23.90;61.00
6556;DHT22;3311;48.32423000;14.29074500;2023-06-19T11:50:12;23.90;61.10
6556;DHT22;3311;48.32423000;14.29074500;2023-06-19T11:52:42;23.90;61.00
6556;DHT22;3311;48.32423000;14.29074500;2023-06-19T11:55:10;23.90;61.10
6556;DHT22;3311;48.32423000;14.29074500;2023-06-19T11:57:38;23.80;61.00
6556;DHT22;3311;48.32423000;14.29074500;2023-06-19T12:00:14;23.80;61.00
6556;DHT22;3311;48.32423000;14.29074500;2023-06-19T12:02:43;23.80;61.00
6556;DHT22;3311;48.32423000;14.29074500;2023-06-19T12:05:12;23.80;61.00
6556;DHT22;3311;48.32423000;14.29074500;2023-06-19T12:07:40;23.80;61.00
6556;DHT22;3311;48.32423000;14.29074500;2023-06-19T12:10:08;23.80;61.00
6556;DHT22;3311;48.32423000;14.29074500;2023-06-19T12:12:37;23.80;61.00
6556;DHT22;3311;48.32423000;14.29074500;2023-06-19T12:15:06;23.80;61.00
6556;DHT22;3311;48.32423000;14.29074500;2023-06-19T12:17:34;23.90;61.10
6556;DHT22;3311;48.32423000;14.29074500;2023-06-19T12:20:04;23.80;61.00
6556;DHT22;3311;48.32423000;14.29074500;2023-06-19T12:22:33;23.80;61.00
6556;DHT22;3311;48.32423000;14.29074500;2023-06-19T12:25:01;23.80;60.90
6556;DHT22;3311;48.32423000;14.29074500;2023-06-19T12:27:28;23.80;60.90
6556;DHT22;3311;48.32423000;14.29074500;2023-06-19T12:29:55;23.80;60.80
6556;DHT22;3311;48.32423000;14.29074500;2023-06-19T12:32:23;23.80;60.80
6556;DHT22;3311;48.32423000;14.29074500;2023-06-19T12:34:50;23.80;60.80
6556;DHT22;3311;48.32423000;14.29074500;2023-06-19T12:37:21;23.80;60.80
6556;DHT22;3311;48.32423000;14.29074500;2023-06-19T12:39:50;23.80;60.70
6556;DHT22;3311;48.32423000;14.29074500;2023-06-19T12:42:17;23.80;60.60
6556;DHT22;3311;48.32423000;14.29074500;2023-06-19T12:44:46;23.80;60.60
6556;DHT22;3311;48.32423000;14.29074500;2023-06-19T12:47:13;23.80;60.60
6556;DHT22;3311;48.32423000;14.29074500;2023-06-19T12:49:42;23.80;60.50
6556;DHT22;3311;48.32423000;14.29074500;2023-06-19T12:52:09;23.80;61.10
6556;DHT22;3311;48.32423000;14.29074500;2023-06-19T12:54:38;23.80;60.40
6556;DHT22;3311;48.32423000;14.29074500;2023-06-19T12:57:07;23.80;60.40
6556;DHT22;3311;48.32423000;14.29074500;2023-06-19T12:59:35;23.80;60.30
6556;DHT22;3311;48.32423000;14.29074500;2023-06-19T13:02:02;23.80;60.20
6556;DHT22;3311;48.32423000;14.29074500;2023-06-19T13:04:29;23.80;60.20
6556;DHT22;3311;48.32423000;14.29074500;2023-06-19T13:06:57;23.80;60.20
6556;DHT22;3311;48.32423000;14.29074500;2023-06-19T13:09:24;23.80;60.10
6556;DHT22;3311;48.32423000;14.29074500;2023-06-19T13:11:52;23.80;60.00
6556;DHT22;3311;48.32423000;14.29074500;2023-06-19T13:14:20;23.80;60.00
6556;DHT22;3311;48.32423000;14.29074500;2023-06-19T13:16:47;23.80;60.00
6556;DHT22;3311;48.32423000;14.29074500;2023-06-19T13:19:14;23.80;59.90
6556;DHT22;3311;48.32423000;14.29074500;2023-06-19T13:21:42;23.80;59.90
6556;DHT22;3311;48.32423000;14.29074500;2023-06-19T13:24:10;23.80;59.80
6556;DHT22;3311;48.32423000;14.29074500;2023-06-19T13:26:37;23.80;59.70
6556;DHT22;3311;48.32423000;14.29074500;2023-06-19T13:29:06;23.80;59.60
6556;DHT22;3311;48.32423000;14.29074500;2023-06-19T13:31:33;23.80;59.50
6556;DHT22;3311;48.32423000;14.29074500;2023-06-19T13:34:00;23.80;59.30
6556;DHT22;3311;48.32423000;14.29074500;2023-06-19T13:36:27;23.80;59.30
6556;DHT22;3311;48.32423000;14.29074500;2023-06-19T13:38:55;23.80;59.30
6556;DHT22;3311;48.32423000;14.29074500;2023-06-19T13:41:22;23.80;59.10